Alice Austin — WTZ3864 — position and weather

sailwx.info

Track history (hours):
 
Tides and Currents Weather Stations Pressure Air Temp Water Temp Dewpoint Dewpoint Depression Visibility Wind Speed Wind Dir Waves Ship Positions

Alice Austin

Owner: CITY OF NEW YORK, Brooklyn, NY. More information available from US FCC via Universal Licensing System and Coast Guard Vessel Documentation Center.

Last reported at 2018-Feb-23 00:30 UTC. Time now 2018-Feb-23 00:53 UTC.
Position N 40°39' W 074°04'.

Length 63 m; draft 2.2 m.

Type: Passenger vessel. MMSI: 367000120.

Date/timePositionNaut miles runAvg speedWind from/ knotsBaromVisibWave heightAir tempDewpointWater temp
2018-Feb-23 00:30N 40°39' W 074°04'1 2.6
2018-Feb-23 00:00N 40°40' W 074°03'2 3.4
2018-Feb-22 23:31N 40°41' W 074°02'2 3.6
2018-Feb-22 23:01N 40°40' W 074°03'1 3.0
2018-Feb-22 22:31N 40°41' W 074°02'1 2.1
2018-Feb-22 22:00N 40°40' W 074°03'1 2.4
2018-Feb-22 21:30N 40°41' W 074°02'3 5.7
2018-Feb-22 21:01N 40°39' W 074°04'0 0.1
2018-Feb-22 20:30N 40°39' W 074°04'0 0.0
2018-Feb-22 20:00N 40°39' W 074°04'0 0.0
2018-Feb-22 19:30N 40°39' W 074°04'0 0.0
2018-Feb-22 19:00N 40°39' W 074°04'0 0.0
2018-Feb-22 18:30N 40°39' W 074°04'0 0.0
2018-Feb-22 18:00N 40°39' W 074°04'0 0.0
2018-Feb-22 17:30N 40°39' W 074°04'0 0.0
2018-Feb-22 17:00N 40°39' W 074°04'0 0.0
2018-Feb-22 16:30N 40°39' W 074°04'0 0.0
2018-Feb-22 16:01N 40°39' W 074°04'0 0.5
2018-Feb-22 15:31N 40°38' W 074°04'0 0.5
2018-Feb-22 15:01N 40°39' W 074°04'4 8.5
2018-Feb-22 14:30N 40°42' W 074°01'4 8.6
2018-Feb-22 14:01N 40°39' W 074°04'4 8.4
2018-Feb-22 13:31N 40°42' W 074°01'3 6.7
2018-Feb-22 13:00N 40°39' W 074°03'3 6.3
2018-Feb-22 12:31N 40°42' W 074°01'2 4.9
2018-Feb-22 12:01N 40°40' W 074°03'2 3.1
2018-Feb-22 11:30N 40°39' W 074°04'4 8.7
2018-Feb-22 11:01N 40°42' W 074°01'4 8.6
2018-Feb-22 10:31N 40°39' W 074°04'4 8.6
2018-Feb-22 10:01N 40°42' W 074°01'4 8.6
2018-Feb-22 09:31N 40°39' W 074°04'4 8.5
2018-Feb-22 09:00N 40°42' W 074°01'4 8.6
2018-Feb-22 08:31N 40°39' W 074°04'4 8.6
2018-Feb-22 08:01N 40°42' W 074°01'4 8.5
2018-Feb-22 07:30N 40°39' W 074°04'4 8.6
2018-Feb-22 07:00N 40°42' W 074°01'4 8.5
2018-Feb-22 06:30N 40°39' W 074°04'4 8.7
2018-Feb-22 06:00N 40°42' W 074°01'4 8.5
2018-Feb-22 05:30N 40°39' W 074°04'0 0.0
2018-Feb-22 05:01N 40°39' W 074°04'0 0.0
2018-Feb-22 04:31N 40°39' W 074°04'0 0.2
2018-Feb-22 04:01N 40°39' W 074°04'0 0.0
2018-Feb-22 03:31N 40°39' W 074°04'0 0.0
2018-Feb-22 03:00N 40°39' W 074°04'0 0.1
2018-Feb-22 02:30N 40°39' W 074°04'0 0.7
2018-Feb-22 02:00N 40°38' W 074°04'1 2.5
2018-Feb-22 01:30N 40°37' W 074°04'1 2.9
2018-Feb-22 01:00N 40°39' W 074°04'0 0.0
2018-Feb-22 00:30N 40°39' W 074°04'4 8.7
2018-Feb-22 00:00N 40°42' W 074°01'4 7.7
2018-Feb-21 23:31N 40°39' W 074°04'3 5.0
2018-Feb-21 23:01N 40°41' W 074°02'1 1.4
2018-Feb-21 22:30N 40°40' W 074°02'0 0.3
2018-Feb-21 22:00N 40°41' W 074°02'0 0.6
2018-Feb-21 21:30N 40°41' W 074°02'3 5.6
2018-Feb-21 21:00N 40°38' W 074°04'0 0.0
2018-Feb-21 20:30N 40°38' W 074°04'0 0.0
2018-Feb-21 20:00N 40°38' W 074°04'0 0.0
2018-Feb-21 19:27N 40°38' W 074°04'0 0.0
2018-Feb-21 19:00N 40°38' W 074°04'0 0.0
2018-Feb-21 18:30N 40°38' W 074°04'0 0.0
2018-Feb-21 18:00N 40°38' W 074°04'0 0.0
2018-Feb-21 17:24N 40°38' W 074°04'0 0.0
2018-Feb-21 16:57N 40°38' W 074°04'0 0.0
2018-Feb-21 16:27N 40°38' W 074°04'0 0.0
2018-Feb-21 16:00N 40°38' W 074°04'0 0.0
2018-Feb-21 15:30N 40°38' W 074°04'0 0.0
2018-Feb-21 15:00N 40°38' W 074°04'0 0.0
2018-Feb-21 14:30N 40°38' W 074°04'0 0.0
2018-Feb-21 14:00N 40°38' W 074°04'0 0.0
2018-Feb-21 13:30N 40°38' W 074°04'0 0.0
2018-Feb-21 13:00N 40°38' W 074°04'0 0.0
2018-Feb-21 12:30N 40°38' W 074°04'0 0.0
2018-Feb-21 12:00N 40°38' W 074°04'0 0.0
2018-Feb-21 11:30N 40°38' W 074°04'0 0.0
2018-Feb-21 11:00N 40°38' W 074°04'0 0.4
2018-Feb-21 10:30N 40°39' W 074°04'0 0.1
2018-Feb-21 10:00N 40°39' W 074°04'0 0.0
2018-Feb-21 09:30N 40°39' W 074°04'4 8.6
2018-Feb-21 09:00N 40°42' W 074°01'4 8.6
2018-Feb-21 08:30N 40°39' W 074°04'4 8.6
2018-Feb-21 08:00N 40°42' W 074°01'4 8.6
2018-Feb-21 07:31N 40°39' W 074°04'4 8.5
2018-Feb-21 07:00N 40°42' W 074°01'4 8.6
2018-Feb-21 06:31N 40°39' W 074°04'4 8.6
2018-Feb-21 06:00N 40°42' W 074°01'4 8.7
2018-Feb-21 05:30N 40°39' W 074°04'4 8.7
2018-Feb-21 05:00N 40°42' W 074°01'4 8.6
2018-Feb-21 04:30N 40°39' W 074°04'0 0.3
2018-Feb-21 04:00N 40°38' W 074°04'0 0.0
2018-Feb-21 03:30N 40°38' W 074°04'0 0.0
2018-Feb-21 03:00N 40°38' W 074°04'0 0.0
2018-Feb-21 02:30N 40°38' W 074°04'0 0.0
2018-Feb-21 02:00N 40°38' W 074°04'0 0.0
2018-Feb-21 01:30N 40°38' W 074°04'0 0.0
2018-Feb-21 01:00N 40°38' W 074°04'0 0.0
2018-Feb-21 00:30N 40°38' W 074°04'0 0.0
2018-Feb-21 00:00N 40°38' W 074°04'0 0.0
2018-Feb-20 23:29N 40°38' W 074°04'0 0.0
2018-Feb-20 23:00N 40°38' W 074°04'0 0.0
2018-Feb-20 22:30N 40°38' W 074°04'0 0.0
2018-Feb-20 22:00N 40°38' W 074°04'0 0.0
2018-Feb-20 21:30N 40°38' W 074°04'0 0.0
2018-Feb-20 21:00N 40°38' W 074°04'0 0.0
2018-Feb-20 20:30N 40°38' W 074°04'0 0.0
2018-Feb-20 20:00N 40°38' W 074°04'0 0.0
2018-Feb-20 19:30N 40°38' W 074°04'0 0.0
2018-Feb-20 19:00N 40°38' W 074°04'0 0.0
2018-Feb-20 18:30N 40°38' W 074°04'0 0.0
2018-Feb-20 18:00N 40°38' W 074°04'0 0.0
2018-Feb-20 17:30N 40°38' W 074°04'0 0.0
2018-Feb-20 17:00N 40°38' W 074°04'0 0.0
2018-Feb-20 16:30N 40°38' W 074°04'0 0.0
2018-Feb-20 16:00N 40°38' W 074°04'0 0.0
2018-Feb-20 15:30N 40°38' W 074°04'0 0.0
2018-Feb-20 15:00N 40°38' W 074°04'0 0.0
2018-Feb-20 14:29N 40°38' W 074°04'0 0.5
2018-Feb-20 14:00N 40°39' W 074°04'0 0.0
2018-Feb-20 13:31N 40°39' W 074°04'0 0.0
2018-Feb-20 13:01N 40°39' W 074°04'0 0.0
2018-Feb-20 12:30N 40°39' W 074°04'0 0.1
2018-Feb-20 11:35N 40°39' W 074°04'0 0.8
2018-Feb-20 11:30N 40°39' W 074°04'4 8.5
2018-Feb-20 11:01N 40°42' W 074°01'4 8.4
2018-Feb-20 10:30N 40°39' W 074°04'4 8.6
2018-Feb-20 10:01N 40°42' W 074°01'4 8.5
2018-Feb-20 09:30N 40°39' W 074°04'4 8.6
2018-Feb-20 09:00N 40°42' W 074°01'0 0.0
2018-Feb-20 08:31N 40°42' W 074°01'4 8.6
2018-Feb-20 08:00N 40°39' W 074°04'4 8.3
2018-Feb-20 07:29N 40°42' W 074°01'4 8.7
2018-Feb-20 07:00N 40°39' W 074°04'0 0.0
2018-Feb-20 06:30N 40°39' W 074°04'4 8.5
2018-Feb-20 06:00N 40°42' W 074°01'4 8.6
2018-Feb-20 05:30N 40°39' W 074°04'4 8.7
2018-Feb-20 05:00N 40°42' W 074°01'4 8.7
2018-Feb-20 04:30N 40°39' W 074°04'0 0.4
2018-Feb-20 04:00N 40°38' W 074°04'0 0.0
2018-Feb-20 03:30N 40°38' W 074°04'0 0.0
2018-Feb-20 02:59N 40°38' W 074°04'0 0.0
2018-Feb-20 02:23N 40°38' W 074°04'0 0.0
2018-Feb-20 01:59N 40°38' W 074°04'0 0.0
2018-Feb-20 01:29N 40°38' W 074°04'0 0.0
2018-Feb-20 00:41N 40°38' W 074°04'0 0.0
2018-Feb-20 00:20N 40°38' W 074°04'0 0.0
2018-Feb-19 23:50N 40°38' W 074°04'0 0.0
2018-Feb-19 23:26N 40°38' W 074°04'0 0.0
2018-Feb-19 22:50N 40°38' W 074°04'0 0.0
2018-Feb-19 22:26N 40°38' W 074°04'0 0.0
2018-Feb-19 21:59N 40°38' W 074°04'0 0.0
2018-Feb-19 21:23N 40°38' W 074°04'0 0.0
2018-Feb-19 20:59N 40°38' W 074°04'0 0.0
2018-Feb-19 20:29N 40°38' W 074°04'0 0.0
2018-Feb-19 19:59N 40°38' W 074°04'0 0.0
2018-Feb-19 19:26N 40°38' W 074°04'0 0.0
2018-Feb-19 18:44N 40°38' W 074°04'0 0.0
2018-Feb-19 18:17N 40°38' W 074°04'0 0.0
2018-Feb-19 17:44N 40°38' W 074°04'0 0.0
2018-Feb-19 17:17N 40°38' W 074°04'0 0.0
2018-Feb-19 16:59N 40°38' W 074°04'0 0.0
2018-Feb-19 16:23N 40°38' W 074°04'0 0.0
2018-Feb-19 15:59N 40°38' W 074°04'0 0.0
2018-Feb-19 15:29N 40°38' W 074°04'0 0.0
2018-Feb-19 14:59N 40°38' W 074°04'0 0.0
2018-Feb-19 14:17N 40°38' W 074°04'0 0.0
2018-Feb-19 13:53N 40°38' W 074°04'0 0.0
2018-Feb-19 13:26N 40°38' W 074°04'0 0.3
2018-Feb-19 12:59N 40°39' W 074°04'0 0.1
2018-Feb-19 12:23N 40°39' W 074°04'411.0
2018-Feb-19 12:00N 40°42' W 074°01'4 8.8
2018-Feb-19 11:30N 40°39' W 074°04'4 8.6
2018-Feb-19 11:00N 40°42' W 074°01'4 7.9
2018-Feb-19 10:28N 40°39' W 074°04'4 9.3
2018-Feb-19 10:00N 40°42' W 074°01'4 8.6
2018-Feb-19 09:30N 40°39' W 074°04'4 8.7
2018-Feb-19 09:00N 40°42' W 074°01'4 8.4
2018-Feb-19 08:30N 40°39' W 074°04'4 8.8
2018-Feb-19 08:01N 40°42' W 074°01'4 8.4
2018-Feb-19 07:30N 40°39' W 074°04'4 8.5
2018-Feb-19 06:59N 40°42' W 074°01'4 7.3
2018-Feb-19 06:24N 40°39' W 074°04'410.7
2018-Feb-19 06:00N 40°42' W 074°01'4 8.4
2018-Feb-19 05:30N 40°39' W 074°04'1 1.2
2018-Feb-19 05:00N 40°38' W 074°04'1 1.0
2018-Feb-19 04:30N 40°38' W 074°04'0 0.0
2018-Feb-19 04:00N 40°38' W 074°04'0 0.0
2018-Feb-19 03:30N 40°38' W 074°04'0 0.0
2018-Feb-19 03:00N 40°38' W 074°04'0 0.0
2018-Feb-19 02:25N 40°38' W 074°04'0 0.0
2018-Feb-19 01:58N 40°38' W 074°04'0 0.0
2018-Feb-19 01:22N 40°38' W 074°04'0 0.0
2018-Feb-19 00:58N 40°38' W 074°04'0 0.0
2018-Feb-19 00:25N 40°38' W 074°04'0 0.0
2018-Feb-18 23:58N 40°38' W 074°04'0 0.0
2018-Feb-18 23:25N 40°38' W 074°04'0 0.0
2018-Feb-18 22:49N 40°38' W 074°04'0 0.0
2018-Feb-18 22:19N 40°38' W 074°04'0 0.0
2018-Feb-18 21:58N 40°38' W 074°04'0 0.0
2018-Feb-18 21:28N 40°38' W 074°04'0 0.0
2018-Feb-18 20:58N 40°38' W 074°04'0 0.0
2018-Feb-18 20:22N 40°38' W 074°04'0 0.0
2018-Feb-18 19:58N 40°38' W 074°04'0 0.0
2018-Feb-18 19:28N 40°38' W 074°04'0 0.0
2018-Feb-18 18:58N 40°38' W 074°04'0 0.0
2018-Feb-18 18:25N 40°38' W 074°04'0 0.0
2018-Feb-18 17:52N 40°38' W 074°04'0 0.0
2018-Feb-18 17:28N 40°38' W 074°04'0 0.0
2018-Feb-18 16:58N 40°38' W 074°04'0 0.0
2018-Feb-18 16:28N 40°38' W 074°04'0 0.0
2018-Feb-18 15:58N 40°38' W 074°04'0 0.0
2018-Feb-18 15:28N 40°38' W 074°04'0 0.0
2018-Feb-18 14:58N 40°38' W 074°04'0 0.0
2018-Feb-18 14:04N 40°38' W 074°04'0 0.0
2018-Feb-18 13:58N 40°38' W 074°04'0 0.0
2018-Feb-18 13:30N 40°38' W 074°04'0 0.3
2018-Feb-18 13:00N 40°39' W 074°04'0 0.1
2018-Feb-18 12:30N 40°39' W 074°04'4 8.6
2018-Feb-18 12:00N 40°42' W 074°01'4 8.7
2018-Feb-18 11:31N 40°39' W 074°04'4 8.5
2018-Feb-18 11:00N 40°42' W 074°01'4 8.7
2018-Feb-18 10:30N 40°39' W 074°04'4 8.6
2018-Feb-18 10:00N 40°42' W 074°01'4 8.1
2018-Feb-18 09:29N 40°39' W 074°04'4 9.1
2018-Feb-18 09:00N 40°42' W 074°01'4 8.6
2018-Feb-18 08:30N 40°39' W 074°04'4 7.7
2018-Feb-18 07:57N 40°42' W 074°01'4 9.7
2018-Feb-18 07:30N 40°39' W 074°04'4 8.6
2018-Feb-18 07:00N 40°42' W 074°01'4 8.6
2018-Feb-18 06:30N 40°39' W 074°04'4 8.5
2018-Feb-18 06:00N 40°42' W 074°01'4 8.6
2018-Feb-18 05:31N 40°39' W 074°04'0 0.4
2018-Feb-18 05:00N 40°38' W 074°04'0 0.1
2018-Feb-18 04:31N 40°38' W 074°04'0 0.1
2018-Feb-18 04:00N 40°38' W 074°04'0 0.0
2018-Feb-18 03:30N 40°38' W 074°04'0 0.0
2018-Feb-17 13:02N 40°39' W 074°04'0 0.5
2018-Feb-17 13:00N 40°39' W 074°04'0 0.0
2018-Feb-17 12:30N 40°39' W 074°04'4 8.6
2018-Feb-17 12:00N 40°42' W 074°01'4 8.7
2018-Feb-17 11:31N 40°39' W 074°04'4 8.6
2018-Feb-17 11:00N 40°42' W 074°01'4 8.6
2018-Feb-17 10:31N 40°39' W 074°04'4 8.6
2018-Feb-17 10:00N 40°42' W 074°01'4 8.2
2018-Feb-17 09:29N 40°39' W 074°04'4 9.1
2018-Feb-17 09:00N 40°42' W 074°01'4 8.6
2018-Feb-17 08:30N 40°39' W 074°04'4 8.5
2018-Feb-17 08:00N 40°42' W 074°01'4 8.6
2018-Feb-17 07:30N 40°39' W 074°04'4 8.7
2018-Feb-17 07:00N 40°42' W 074°01'4 8.6
2018-Feb-17 06:30N 40°39' W 074°04'4 7.5
2018-Feb-17 05:56N 40°42' W 074°01'410.2
2018-Feb-17 05:31N 40°39' W 074°04'4 8.6
2018-Feb-17 05:01N 40°42' W 074°01'4 8.6
2018-Feb-17 04:30N 40°39' W 074°04'0 0.4
2018-Feb-17 04:01N 40°38' W 074°04'0 0.0
2018-Feb-17 03:31N 40°38' W 074°04'0 0.0
2018-Feb-17 03:00N 40°38' W 074°04'0 0.0
2018-Feb-17 02:30N 40°38' W 074°04'0 0.0
2018-Feb-17 02:00N 40°38' W 074°04'0 0.0
2018-Feb-17 01:30N 40°38' W 074°04'0 0.0
2018-Feb-17 01:00N 40°38' W 074°04'0 0.0
2018-Feb-17 00:30N 40°38' W 074°04'0 0.0
2018-Feb-17 00:00N 40°38' W 074°04'0 0.0
2018-Feb-16 23:30N 40°38' W 074°04'0 0.0
2018-Feb-16 23:00N 40°38' W 074°04'0 0.0
2018-Feb-16 22:30N 40°38' W 074°04'0 0.0
2018-Feb-16 22:00N 40°38' W 074°04'0 0.0
2018-Feb-16 21:30N 40°38' W 074°04'0 0.0
2018-Feb-16 21:00N 40°38' W 074°04'0 0.0
2018-Feb-16 20:30N 40°38' W 074°04'0 0.0
2018-Feb-16 20:00N 40°38' W 074°04'0 0.0
2018-Feb-16 19:30N 40°38' W 074°04'0 0.0
2018-Feb-16 19:00N 40°38' W 074°04'0 0.0
2018-Feb-16 18:30N 40°38' W 074°04'0 0.0
2018-Feb-16 18:00N 40°38' W 074°04'0 0.0
2018-Feb-16 17:30N 40°38' W 074°04'0 0.0
2018-Feb-16 17:00N 40°38' W 074°04'0 0.0
2018-Feb-16 16:30N 40°38' W 074°04'0 0.0
2018-Feb-16 16:00N 40°38' W 074°04'0 0.0
2018-Feb-16 15:30N 40°38' W 074°04'0 0.0
2018-Feb-16 15:00N 40°38' W 074°04'0 0.0
2018-Feb-16 14:30N 40°38' W 074°04'0 0.0
2018-Feb-16 14:00N 40°38' W 074°04'0 0.0
2018-Feb-16 13:30N 40°38' W 074°04'0 0.5
2018-Feb-16 13:00N 40°39' W 074°04'0 0.2
2018-Feb-16 12:30N 40°39' W 074°04'2 5.0
2018-Feb-16 12:01N 40°41' W 074°02'1 1.5
2018-Feb-16 11:30N 40°40' W 074°03'2 3.6
2018-Feb-16 11:00N 40°39' W 074°04'4 8.7
2018-Feb-16 10:30N 40°42' W 074°01'4 8.6
2018-Feb-16 10:00N 40°39' W 074°04'4 8.6
2018-Feb-16 09:30N 40°42' W 074°01'4 8.6
2018-Feb-16 09:00N 40°39' W 074°04'4 8.6
2018-Feb-16 08:30N 40°42' W 074°01'4 8.7
2018-Feb-16 08:00N 40°39' W 074°04'4 8.6
2018-Feb-16 07:30N 40°42' W 074°01'4 8.5
2018-Feb-16 07:00N 40°39' W 074°04'0 0.0
2018-Feb-16 06:29N 40°39' W 074°04'0 0.1
2018-Feb-16 06:00N 40°39' W 074°04'0 0.1
2018-Feb-16 05:30N 40°39' W 074°04'4 8.5
2018-Feb-16 05:00N 40°42' W 074°01'4 8.6
2018-Feb-16 04:31N 40°39' W 074°04'0 0.4
2018-Feb-16 03:59N 40°38' W 074°04'0 0.0
2018-Feb-16 03:31N 40°38' W 074°04'0 0.0
2018-Feb-16 03:00N 40°38' W 074°04'0 0.0
2018-Feb-16 02:30N 40°38' W 074°04'0 0.0
2018-Feb-16 02:00N 40°38' W 074°04'0 0.0
2018-Feb-16 01:30N 40°38' W 074°04'0 0.0
2018-Feb-16 01:00N 40°38' W 074°04'0 0.0
2018-Feb-16 00:24N 40°38' W 074°04'0 0.0
2018-Feb-16 00:00N 40°38' W 074°04'0 0.0
2018-Feb-15 23:30N 40°38' W 074°04'0 0.0
2018-Feb-15 23:00N 40°38' W 074°04'0 0.0
2018-Feb-15 22:30N 40°38' W 074°04'0 0.0
2018-Feb-15 22:00N 40°38' W 074°04'0 0.0
2018-Feb-15 21:30N 40°38' W 074°04'0 0.0
2018-Feb-15 21:00N 40°38' W 074°04'0 0.0
2018-Feb-15 20:30N 40°38' W 074°04'0 0.0
2018-Feb-15 19:54N 40°38' W 074°04'0 0.0
2018-Feb-15 19:30N 40°38' W 074°04'0 0.0
2018-Feb-15 19:00N 40°38' W 074°04'0 0.0
2018-Feb-15 18:30N 40°38' W 074°04'0 0.0
2018-Feb-15 17:57N 40°38' W 074°04'0 0.0
2018-Feb-15 17:30N 40°38' W 074°04'0 0.0
2018-Feb-15 16:57N 40°38' W 074°04'0 0.0
2018-Feb-15 16:30N 40°38' W 074°04'0 0.0
2018-Feb-15 15:57N 40°38' W 074°04'0 0.0
2018-Feb-15 15:21N 40°38' W 074°04'0 0.0
2018-Feb-15 15:00N 40°38' W 074°04'0 0.0
2018-Feb-15 14:30N 40°38' W 074°04'0 0.0
2018-Feb-15 14:00N 40°38' W 074°04'0 0.0
2018-Feb-15 13:31N 40°38' W 074°04'0 0.0
2018-Feb-15 13:00N 40°38' W 074°04'0 0.0
2018-Feb-15 12:30N 40°38' W 074°04'0 0.3
2018-Feb-15 12:00N 40°39' W 074°04'0 0.0
2018-Feb-15 11:30N 40°39' W 074°04'4 8.7
2018-Feb-15 11:00N 40°42' W 074°01'4 8.6
2018-Feb-15 10:30N 40°39' W 074°04'4 8.6
2018-Feb-15 10:00N 40°42' W 074°01'4 8.7
2018-Feb-15 09:30N 40°39' W 074°04'4 8.6
2018-Feb-15 09:00N 40°42' W 074°01'4 8.6
2018-Feb-15 08:30N 40°39' W 074°04'4 8.6
2018-Feb-15 08:00N 40°42' W 074°01'4 8.6
2018-Feb-15 07:30N 40°39' W 074°04'4 8.6
2018-Feb-15 07:00N 40°42' W 074°01'4 8.5
2018-Feb-15 06:30N 40°39' W 074°04'4 8.5
2018-Feb-15 06:00N 40°42' W 074°01'4 8.6
2018-Feb-15 05:31N 40°39' W 074°04'4 8.5
2018-Feb-15 05:00N 40°42' W 074°01'4 8.4
2018-Feb-15 04:30N 40°39' W 074°04'0 0.4
2018-Feb-15 04:00N 40°38' W 074°04'0 0.1
2018-Feb-15 03:30N 40°38' W 074°04'0 0.1
2018-Feb-15 03:00N 40°38' W 074°04'0 0.0
2018-Feb-15 02:30N 40°38' W 074°04'0 0.0
2018-Feb-15 02:00N 40°38' W 074°04'0 0.0
2018-Feb-15 01:30N 40°38' W 074°04'0 0.0
2018-Feb-15 01:00N 40°38' W 074°04'0 0.0
2018-Feb-15 00:30N 40°38' W 074°04'0 0.0
2018-Feb-15 00:00N 40°38' W 074°04'0 0.0
2018-Feb-14 23:30N 40°38' W 074°04'0 0.0
2018-Feb-14 23:00N 40°38' W 074°04'0 0.0
2018-Feb-14 22:30N 40°38' W 074°04'0 0.0
2018-Feb-14 22:00N 40°38' W 074°04'0 0.0
2018-Feb-14 21:30N 40°38' W 074°04'0 0.0
2018-Feb-14 21:00N 40°38' W 074°04'0 0.0
2018-Feb-14 20:30N 40°38' W 074°04'0 0.0
2018-Feb-14 20:00N 40°38' W 074°04'0 0.0
2018-Feb-14 19:30N 40°38' W 074°04'0 0.0
2018-Feb-14 19:00N 40°38' W 074°04'0 0.0
2018-Feb-14 18:30N 40°38' W 074°04'0 0.0
2018-Feb-14 18:00N 40°38' W 074°04'0 0.0
2018-Feb-14 17:30N 40°38' W 074°04'0 0.0
2018-Feb-14 17:00N 40°38' W 074°04'0 0.0
2018-Feb-14 16:30N 40°38' W 074°04'0 0.0
2018-Feb-14 16:00N 40°38' W 074°04'0 0.0
2018-Feb-14 15:29N 40°38' W 074°04'0 0.0
2018-Feb-14 15:00N 40°38' W 074°04'0 0.0
2018-Feb-14 14:30N 40°38' W 074°04'0 0.0
2018-Feb-14 14:00N 40°38' W 074°04'0 0.0
2018-Feb-14 13:30N 40°38' W 074°04'0 0.0
2018-Feb-14 13:00N 40°38' W 074°04'0 0.0
2018-Feb-14 12:30N 40°38' W 074°04'0 0.6
2018-Feb-14 12:00N 40°39' W 074°04'0 0.3
2018-Feb-14 11:30N 40°39' W 074°04'4 8.7
2018-Feb-14 11:00N 40°42' W 074°01'4 8.6
2018-Feb-14 10:31N 40°39' W 074°04'4 8.6
2018-Feb-14 10:01N 40°42' W 074°01'4 8.6
2018-Feb-14 09:30N 40°39' W 074°04'4 8.6
2018-Feb-14 09:01N 40°42' W 074°01'4 8.6
2018-Feb-14 08:30N 40°39' W 074°04'4 8.6
2018-Feb-14 08:00N 40°42' W 074°01'4 8.5
2018-Feb-14 07:30N 40°39' W 074°04'4 8.7
2018-Feb-14 07:01N 40°42' W 074°01'4 8.6
2018-Feb-14 06:30N 40°39' W 074°04'4 8.6
2018-Feb-14 06:00N 40°42' W 074°01'4 8.7
2018-Feb-14 05:31N 40°39' W 074°04'4 8.6
2018-Feb-14 05:01N 40°42' W 074°01'4 8.6
2018-Feb-14 04:30N 40°39' W 074°04'0 0.4
2018-Feb-14 04:00N 40°38' W 074°04'0 0.0
2018-Feb-14 03:31N 40°38' W 074°04'0 0.0
2018-Feb-14 03:00N 40°38' W 074°04'0 0.0
2018-Feb-14 02:31N 40°38' W 074°04'0 0.0
2018-Feb-14 02:00N 40°38' W 074°04'0 0.0
2018-Feb-14 01:31N 40°38' W 074°04'0 0.0
2018-Feb-14 01:01N 40°38' W 074°04'0 0.0
2018-Feb-14 00:31N 40°38' W 074°04'0 0.0
2018-Feb-14 00:01N 40°38' W 074°04'0 0.0
2018-Feb-13 23:31N 40°38' W 074°04'0 0.0
2018-Feb-13 23:00N 40°38' W 074°04'0 0.0
2018-Feb-13 22:31N 40°38' W 074°04'0 0.0
2018-Feb-13 22:00N 40°38' W 074°04'0 0.0
2018-Feb-13 21:31N 40°38' W 074°04'0 0.0
2018-Feb-13 21:01N 40°38' W 074°04'0 0.0
2018-Feb-13 20:30N 40°38' W 074°04'0 0.0
2018-Feb-13 20:00N 40°38' W 074°04'0 0.0
2018-Feb-13 19:31N 40°38' W 074°04'0 0.0
2018-Feb-13 19:01N 40°38' W 074°04'0 0.0
2018-Feb-13 18:30N 40°38' W 074°04'0 0.0
2018-Feb-13 18:00N 40°38' W 074°04'0 0.0
2018-Feb-13 17:30N 40°38' W 074°04'0 0.0
2018-Feb-13 17:00N 40°38' W 074°04'0 0.0
2018-Feb-13 16:31N 40°38' W 074°04'0 0.0
2018-Feb-13 16:01N 40°38' W 074°04'0 0.0
2018-Feb-13 15:30N 40°38' W 074°04'0 0.0
2018-Feb-13 15:00N 40°38' W 074°04'0 0.0
2018-Feb-13 14:31N 40°38' W 074°04'0 0.0
2018-Feb-13 14:00N 40°38' W 074°04'0 0.0
2018-Feb-13 13:30N 40°38' W 074°04'0 0.0
2018-Feb-13 13:00N 40°38' W 074°04'0 0.0
2018-Feb-13 12:30N 40°38' W 074°04'0 0.5
2018-Feb-13 12:01N 40°39' W 074°04'0 0.0
2018-Feb-13 11:31N 40°39' W 074°04'4 8.4
2018-Feb-13 11:00N 40°42' W 074°01'4 8.7
2018-Feb-13 10:30N 40°39' W 074°04'4 8.6
2018-Feb-13 10:00N 40°42' W 074°01'4 8.6
2018-Feb-13 09:30N 40°39' W 074°04'4 8.5
2018-Feb-13 09:00N 40°42' W 074°01'4 8.6
2018-Feb-13 08:30N 40°39' W 074°04'4 8.6
2018-Feb-13 08:00N 40°42' W 074°01'4 8.6
2018-Feb-13 07:31N 40°39' W 074°04'4 8.6
2018-Feb-13 07:01N 40°42' W 074°01'4 8.6
2018-Feb-13 06:30N 40°39' W 074°04'4 8.6
2018-Feb-13 06:00N 40°42' W 074°01'4 8.6
2018-Feb-13 05:31N 40°39' W 074°04'4 8.5
2018-Feb-13 05:01N 40°42' W 074°01'4 8.5
2018-Feb-13 04:30N 40°39' W 074°04'0 0.4
2018-Feb-13 04:01N 40°38' W 074°04'0 0.0
2018-Feb-13 03:31N 40°38' W 074°04'0 0.0
2018-Feb-13 03:00N 40°38' W 074°04'0 0.0
2018-Feb-13 02:29N 40°38' W 074°04'0 0.0
2018-Feb-13 01:56N 40°38' W 074°04'0 0.0
2018-Feb-13 01:29N 40°38' W 074°04'0 0.0
2018-Feb-13 00:59N 40°38' W 074°04'  
Track history (hours):
 
Tides and Currents Weather Stations Pressure Air Temp Water Temp Dewpoint Dewpoint Depression Visibility Wind Speed Wind Dir Waves Ship Positions

Alice Austin

Owner: CITY OF NEW YORK, Brooklyn, NY. More information available from US FCC via Universal Licensing System and Coast Guard Vessel Documentation Center.

Last reported at 2018-Feb-23 00:30 UTC. Time now 2018-Feb-23 00:53 UTC.
Position N 40°39' W 074°04'.

Length 63 m; draft 2.2 m.

Type: Passenger vessel. MMSI: 367000120.

Date/timePositionNaut miles runAvg speedWind from/ knotsBaromVisibWave heightAir tempDewpointWater temp
2018-Feb-23 00:30N 40°39' W 074°04'1 2.6
2018-Feb-23 00:00N 40°40' W 074°03'2 3.4
2018-Feb-22 23:31N 40°41' W 074°02'2 3.6
2018-Feb-22 23:01N 40°40' W 074°03'1 3.0
2018-Feb-22 22:31N 40°41' W 074°02'1 2.1
2018-Feb-22 22:00N 40°40' W 074°03'1 2.4
2018-Feb-22 21:30N 40°41' W 074°02'3 5.7
2018-Feb-22 21:01N 40°39' W 074°04'0 0.1
2018-Feb-22 20:30N 40°39' W 074°04'0 0.0
2018-Feb-22 20:00N 40°39' W 074°04'0 0.0
2018-Feb-22 19:30N 40°39' W 074°04'0 0.0
2018-Feb-22 19:00N 40°39' W 074°04'0 0.0
2018-Feb-22 18:30N 40°39' W 074°04'0 0.0
2018-Feb-22 18:00N 40°39' W 074°04'0 0.0
2018-Feb-22 17:30N 40°39' W 074°04'0 0.0
2018-Feb-22 17:00N 40°39' W 074°04'0 0.0
2018-Feb-22 16:30N 40°39' W 074°04'0 0.0
2018-Feb-22 16:01N 40°39' W 074°04'0 0.5
2018-Feb-22 15:31N 40°38' W 074°04'0 0.5
2018-Feb-22 15:01N 40°39' W 074°04'4 8.5
2018-Feb-22 14:30N 40°42' W 074°01'4 8.6
2018-Feb-22 14:01N 40°39' W 074°04'4 8.4
2018-Feb-22 13:31N 40°42' W 074°01'3 6.7
2018-Feb-22 13:00N 40°39' W 074°03'3 6.3
2018-Feb-22 12:31N 40°42' W 074°01'2 4.9
2018-Feb-22 12:01N 40°40' W 074°03'2 3.1
2018-Feb-22 11:30N 40°39' W 074°04'4 8.7
2018-Feb-22 11:01N 40°42' W 074°01'4 8.6
2018-Feb-22 10:31N 40°39' W 074°04'4 8.6
2018-Feb-22 10:01N 40°42' W 074°01'4 8.6
2018-Feb-22 09:31N 40°39' W 074°04'4 8.5
2018-Feb-22 09:00N 40°42' W 074°01'4 8.6
2018-Feb-22 08:31N 40°39' W 074°04'4 8.6
2018-Feb-22 08:01N 40°42' W 074°01'4 8.5
2018-Feb-22 07:30N 40°39' W 074°04'4 8.6
2018-Feb-22 07:00N 40°42' W 074°01'4 8.5
2018-Feb-22 06:30N 40°39' W 074°04'4 8.7
2018-Feb-22 06:00N 40°42' W 074°01'4 8.5
2018-Feb-22 05:30N 40°39' W 074°04'0 0.0
2018-Feb-22 05:01N 40°39' W 074°04'0 0.0
2018-Feb-22 04:31N 40°39' W 074°04'0 0.2
2018-Feb-22 04:01N 40°39' W 074°04'0 0.0
2018-Feb-22 03:31N 40°39' W 074°04'0 0.0
2018-Feb-22 03:00N 40°39' W 074°04'0 0.1
2018-Feb-22 02:30N 40°39' W 074°04'0 0.7
2018-Feb-22 02:00N 40°38' W 074°04'1 2.5
2018-Feb-22 01:30N 40°37' W 074°04'1 2.9
2018-Feb-22 01:00N 40°39' W 074°04'0 0.0
2018-Feb-22 00:30N 40°39' W 074°04'4 8.7
2018-Feb-22 00:00N 40°42' W 074°01'4 7.7
2018-Feb-21 23:31N 40°39' W 074°04'3 5.0
2018-Feb-21 23:01N 40°41' W 074°02'1 1.4
2018-Feb-21 22:30N 40°40' W 074°02'0 0.3
2018-Feb-21 22:00N 40°41' W 074°02'0 0.6
2018-Feb-21 21:30N 40°41' W 074°02'3 5.6
2018-Feb-21 21:00N 40°38' W 074°04'0 0.0
2018-Feb-21 20:30N 40°38' W 074°04'0 0.0
2018-Feb-21 20:00N 40°38' W 074°04'0 0.0
2018-Feb-21 19:27N 40°38' W 074°04'0 0.0
2018-Feb-21 19:00N 40°38' W 074°04'0 0.0
2018-Feb-21 18:30N 40°38' W 074°04'0 0.0
2018-Feb-21 18:00N 40°38' W 074°04'0 0.0
2018-Feb-21 17:24N 40°38' W 074°04'0 0.0
2018-Feb-21 16:57N 40°38' W 074°04'0 0.0
2018-Feb-21 16:27N 40°38' W 074°04'0 0.0
2018-Feb-21 16:00N 40°38' W 074°04'0 0.0
2018-Feb-21 15:30N 40°38' W 074°04'0 0.0
2018-Feb-21 15:00N 40°38' W 074°04'0 0.0
2018-Feb-21 14:30N 40°38' W 074°04'0 0.0
2018-Feb-21 14:00N 40°38' W 074°04'0 0.0
2018-Feb-21 13:30N 40°38' W 074°04'0 0.0
2018-Feb-21 13:00N 40°38' W 074°04'0 0.0
2018-Feb-21 12:30N 40°38' W 074°04'0 0.0
2018-Feb-21 12:00N 40°38' W 074°04'0 0.0
2018-Feb-21 11:30N 40°38' W 074°04'0 0.0
2018-Feb-21 11:00N 40°38' W 074°04'0 0.4
2018-Feb-21 10:30N 40°39' W 074°04'0 0.1
2018-Feb-21 10:00N 40°39' W 074°04'0 0.0
2018-Feb-21 09:30N 40°39' W 074°04'4 8.6
2018-Feb-21 09:00N 40°42' W 074°01'4 8.6
2018-Feb-21 08:30N 40°39' W 074°04'4 8.6
2018-Feb-21 08:00N 40°42' W 074°01'4 8.6
2018-Feb-21 07:31N 40°39' W 074°04'4 8.5
2018-Feb-21 07:00N 40°42' W 074°01'4 8.6
2018-Feb-21 06:31N 40°39' W 074°04'4 8.6
2018-Feb-21 06:00N 40°42' W 074°01'4 8.7
2018-Feb-21 05:30N 40°39' W 074°04'4 8.7
2018-Feb-21 05:00N 40°42' W 074°01'4 8.6
2018-Feb-21 04:30N 40°39' W 074°04'0 0.3
2018-Feb-21 04:00N 40°38' W 074°04'0 0.0
2018-Feb-21 03:30N 40°38' W 074°04'0 0.0
2018-Feb-21 03:00N 40°38' W 074°04'0 0.0
2018-Feb-21 02:30N 40°38' W 074°04'0 0.0
2018-Feb-21 02:00N 40°38' W 074°04'0 0.0
2018-Feb-21 01:30N 40°38' W 074°04'0 0.0
2018-Feb-21 01:00N 40°38' W 074°04'0 0.0
2018-Feb-21 00:30N 40°38' W 074°04'0 0.0
2018-Feb-21 00:00N 40°38' W 074°04'0 0.0
2018-Feb-20 23:29N 40°38' W 074°04'0 0.0
2018-Feb-20 23:00N 40°38' W 074°04'0 0.0
2018-Feb-20 22:30N 40°38' W 074°04'0 0.0
2018-Feb-20 22:00N 40°38' W 074°04'0 0.0
2018-Feb-20 21:30N 40°38' W 074°04'0 0.0
2018-Feb-20 21:00N 40°38' W 074°04'0 0.0
2018-Feb-20 20:30N 40°38' W 074°04'0 0.0
2018-Feb-20 20:00N 40°38' W 074°04'0 0.0
2018-Feb-20 19:30N 40°38' W 074°04'0 0.0
2018-Feb-20 19:00N 40°38' W 074°04'0 0.0
2018-Feb-20 18:30N 40°38' W 074°04'0 0.0
2018-Feb-20 18:00N 40°38' W 074°04'0 0.0
2018-Feb-20 17:30N 40°38' W 074°04'0 0.0
2018-Feb-20 17:00N 40°38' W 074°04'0 0.0
2018-Feb-20 16:30N 40°38' W 074°04'0 0.0
2018-Feb-20 16:00N 40°38' W 074°04'0 0.0
2018-Feb-20 15:30N 40°38' W 074°04'0 0.0
2018-Feb-20 15:00N 40°38' W 074°04'0 0.0
2018-Feb-20 14:29N 40°38' W 074°04'0 0.5
2018-Feb-20 14:00N 40°39' W 074°04'0 0.0
2018-Feb-20 13:31N 40°39' W 074°04'0 0.0
2018-Feb-20 13:01N 40°39' W 074°04'0 0.0
2018-Feb-20 12:30N 40°39' W 074°04'0 0.1
2018-Feb-20 11:35N 40°39' W 074°04'0 0.8
2018-Feb-20 11:30N 40°39' W 074°04'4 8.5
2018-Feb-20 11:01N 40°42' W 074°01'4 8.4
2018-Feb-20 10:30N 40°39' W 074°04'4 8.6
2018-Feb-20 10:01N 40°42' W 074°01'4 8.5
2018-Feb-20 09:30N 40°39' W 074°04'4 8.6
2018-Feb-20 09:00N 40°42' W 074°01'0 0.0
2018-Feb-20 08:31N 40°42' W 074°01'4 8.6
2018-Feb-20 08:00N 40°39' W 074°04'4 8.3
2018-Feb-20 07:29N 40°42' W 074°01'4 8.7
2018-Feb-20 07:00N 40°39' W 074°04'0 0.0
2018-Feb-20 06:30N 40°39' W 074°04'4 8.5
2018-Feb-20 06:00N 40°42' W 074°01'4 8.6
2018-Feb-20 05:30N 40°39' W 074°04'4 8.7
2018-Feb-20 05:00N 40°42' W 074°01'4 8.7
2018-Feb-20 04:30N 40°39' W 074°04'0 0.4
2018-Feb-20 04:00N 40°38' W 074°04'0 0.0
2018-Feb-20 03:30N 40°38' W 074°04'0 0.0
2018-Feb-20 02:59N 40°38' W 074°04'0 0.0
2018-Feb-20 02:23N 40°38' W 074°04'0 0.0
2018-Feb-20 01:59N 40°38' W 074°04'0 0.0
2018-Feb-20 01:29N 40°38' W 074°04'0 0.0
2018-Feb-20 00:41N 40°38' W 074°04'0 0.0
2018-Feb-20 00:20N 40°38' W 074°04'0 0.0
2018-Feb-19 23:50N 40°38' W 074°04'0 0.0
2018-Feb-19 23:26N 40°38' W 074°04'0 0.0
2018-Feb-19 22:50N 40°38' W 074°04'0 0.0
2018-Feb-19 22:26N 40°38' W 074°04'0 0.0
2018-Feb-19 21:59N 40°38' W 074°04'0 0.0
2018-Feb-19 21:23N 40°38' W 074°04'0 0.0
2018-Feb-19 20:59N 40°38' W 074°04'0 0.0
2018-Feb-19 20:29N 40°38' W 074°04'0 0.0
2018-Feb-19 19:59N 40°38' W 074°04'0 0.0
2018-Feb-19 19:26N 40°38' W 074°04'0 0.0
2018-Feb-19 18:44N 40°38' W 074°04'0 0.0
2018-Feb-19 18:17N 40°38' W 074°04'0 0.0
2018-Feb-19 17:44N 40°38' W 074°04'0 0.0
2018-Feb-19 17:17N 40°38' W 074°04'0 0.0
2018-Feb-19 16:59N 40°38' W 074°04'0 0.0
2018-Feb-19 16:23N 40°38' W 074°04'0 0.0
2018-Feb-19 15:59N 40°38' W 074°04'0 0.0
2018-Feb-19 15:29N 40°38' W 074°04'0 0.0
2018-Feb-19 14:59N 40°38' W 074°04'0 0.0
2018-Feb-19 14:17N 40°38' W 074°04'0 0.0
2018-Feb-19 13:53N 40°38' W 074°04'0 0.0
2018-Feb-19 13:26N 40°38' W 074°04'0 0.3
2018-Feb-19 12:59N 40°39' W 074°04'0 0.1
2018-Feb-19 12:23N 40°39' W 074°04'411.0
2018-Feb-19 12:00N 40°42' W 074°01'4 8.8
2018-Feb-19 11:30N 40°39' W 074°04'4 8.6
2018-Feb-19 11:00N 40°42' W 074°01'4 7.9
2018-Feb-19 10:28N 40°39' W 074°04'4 9.3
2018-Feb-19 10:00N 40°42' W 074°01'4 8.6
2018-Feb-19 09:30N 40°39' W 074°04'4 8.7
2018-Feb-19 09:00N 40°42' W 074°01'4 8.4
2018-Feb-19 08:30N 40°39' W 074°04'4 8.8
2018-Feb-19 08:01N 40°42' W 074°01'4 8.4
2018-Feb-19 07:30N 40°39' W 074°04'4 8.5
2018-Feb-19 06:59N 40°42' W 074°01'4 7.3
2018-Feb-19 06:24N 40°39' W 074°04'410.7
2018-Feb-19 06:00N 40°42' W 074°01'4 8.4
2018-Feb-19 05:30N 40°39' W 074°04'1 1.2
2018-Feb-19 05:00N 40°38' W 074°04'1 1.0
2018-Feb-19 04:30N 40°38' W 074°04'0 0.0
2018-Feb-19 04:00N 40°38' W 074°04'0 0.0
2018-Feb-19 03:30N 40°38' W 074°04'0 0.0
2018-Feb-19 03:00N 40°38' W 074°04'0 0.0
2018-Feb-19 02:25N 40°38' W 074°04'0 0.0
2018-Feb-19 01:58N 40°38' W 074°04'0 0.0
2018-Feb-19 01:22N 40°38' W 074°04'0 0.0
2018-Feb-19 00:58N 40°38' W 074°04'0 0.0
2018-Feb-19 00:25N 40°38' W 074°04'0 0.0
2018-Feb-18 23:58N 40°38' W 074°04'0 0.0
2018-Feb-18 23:25N 40°38' W 074°04'0 0.0
2018-Feb-18 22:49N 40°38' W 074°04'0 0.0
2018-Feb-18 22:19N 40°38' W 074°04'0 0.0
2018-Feb-18 21:58N 40°38' W 074°04'0 0.0
2018-Feb-18 21:28N 40°38' W 074°04'0 0.0
2018-Feb-18 20:58N 40°38' W 074°04'0 0.0
2018-Feb-18 20:22N 40°38' W 074°04'0 0.0
2018-Feb-18 19:58N 40°38' W 074°04'0 0.0
2018-Feb-18 19:28N 40°38' W 074°04'0 0.0
2018-Feb-18 18:58N 40°38' W 074°04'0 0.0
2018-Feb-18 18:25N 40°38' W 074°04'0 0.0
2018-Feb-18 17:52N 40°38' W 074°04'0 0.0
2018-Feb-18 17:28N 40°38' W 074°04'0 0.0
2018-Feb-18 16:58N 40°38' W 074°04'0 0.0
2018-Feb-18 16:28N 40°38' W 074°04'0 0.0
2018-Feb-18 15:58N 40°38' W 074°04'0 0.0
2018-Feb-18 15:28N 40°38' W 074°04'0 0.0
2018-Feb-18 14:58N 40°38' W 074°04'0 0.0
2018-Feb-18 14:04N 40°38' W 074°04'0 0.0
2018-Feb-18 13:58N 40°38' W 074°04'0 0.0
2018-Feb-18 13:30N 40°38' W 074°04'0 0.3
2018-Feb-18 13:00N 40°39' W 074°04'0 0.1
2018-Feb-18 12:30N 40°39' W 074°04'4 8.6
2018-Feb-18 12:00N 40°42' W 074°01'4 8.7
2018-Feb-18 11:31N 40°39' W 074°04'4 8.5
2018-Feb-18 11:00N 40°42' W 074°01'4 8.7
2018-Feb-18 10:30N 40°39' W 074°04'4 8.6
2018-Feb-18 10:00N 40°42' W 074°01'4 8.1
2018-Feb-18 09:29N 40°39' W 074°04'4 9.1
2018-Feb-18 09:00N 40°42' W 074°01'4 8.6
2018-Feb-18 08:30N 40°39' W 074°04'4 7.7
2018-Feb-18 07:57N 40°42' W 074°01'4 9.7
2018-Feb-18 07:30N 40°39' W 074°04'4 8.6
2018-Feb-18 07:00N 40°42' W 074°01'4 8.6
2018-Feb-18 06:30N 40°39' W 074°04'4 8.5
2018-Feb-18 06:00N 40°42' W 074°01'4 8.6
2018-Feb-18 05:31N 40°39' W 074°04'0 0.4
2018-Feb-18 05:00N 40°38' W 074°04'0 0.1
2018-Feb-18 04:31N 40°38' W 074°04'0 0.1
2018-Feb-18 04:00N 40°38' W 074°04'0 0.0
2018-Feb-18 03:30N 40°38' W 074°04'0 0.0
2018-Feb-17 13:02N 40°39' W 074°04'0 0.5
2018-Feb-17 13:00N 40°39' W 074°04'0 0.0
2018-Feb-17 12:30N 40°39' W 074°04'4 8.6
2018-Feb-17 12:00N 40°42' W 074°01'4 8.7
2018-Feb-17 11:31N 40°39' W 074°04'4 8.6
2018-Feb-17 11:00N 40°42' W 074°01'4 8.6
2018-Feb-17 10:31N 40°39' W 074°04'4 8.6
2018-Feb-17 10:00N 40°42' W 074°01'4 8.2
2018-Feb-17 09:29N 40°39' W 074°04'4 9.1
2018-Feb-17 09:00N 40°42' W 074°01'4 8.6
2018-Feb-17 08:30N 40°39' W 074°04'4 8.5
2018-Feb-17 08:00N 40°42' W 074°01'4 8.6
2018-Feb-17 07:30N 40°39' W 074°04'4 8.7
2018-Feb-17 07:00N 40°42' W 074°01'4 8.6
2018-Feb-17 06:30N 40°39' W 074°04'4 7.5
2018-Feb-17 05:56N 40°42' W 074°01'410.2
2018-Feb-17 05:31N 40°39' W 074°04'4 8.6
2018-Feb-17 05:01N 40°42' W 074°01'4 8.6
2018-Feb-17 04:30N 40°39' W 074°04'0 0.4
2018-Feb-17 04:01N 40°38' W 074°04'0 0.0
2018-Feb-17 03:31N 40°38' W 074°04'0 0.0
2018-Feb-17 03:00N 40°38' W 074°04'0 0.0
2018-Feb-17 02:30N 40°38' W 074°04'0 0.0
2018-Feb-17 02:00N 40°38' W 074°04'0 0.0
2018-Feb-17 01:30N 40°38' W 074°04'0 0.0
2018-Feb-17 01:00N 40°38' W 074°04'0 0.0
2018-Feb-17 00:30N 40°38' W 074°04'0 0.0
2018-Feb-17 00:00N 40°38' W 074°04'0 0.0
2018-Feb-16 23:30N 40°38' W 074°04'0 0.0
2018-Feb-16 23:00N 40°38' W 074°04'0 0.0
2018-Feb-16 22:30N 40°38' W 074°04'0 0.0
2018-Feb-16 22:00N 40°38' W 074°04'0 0.0
2018-Feb-16 21:30N 40°38' W 074°04'0 0.0
2018-Feb-16 21:00N 40°38' W 074°04'0 0.0
2018-Feb-16 20:30N 40°38' W 074°04'0 0.0
2018-Feb-16 20:00N 40°38' W 074°04'0 0.0
2018-Feb-16 19:30N 40°38' W 074°04'0 0.0
2018-Feb-16 19:00N 40°38' W 074°04'0 0.0
2018-Feb-16 18:30N 40°38' W 074°04'0 0.0
2018-Feb-16 18:00N 40°38' W 074°04'0 0.0
2018-Feb-16 17:30N 40°38' W 074°04'0 0.0
2018-Feb-16 17:00N 40°38' W 074°04'0 0.0
2018-Feb-16 16:30N 40°38' W 074°04'0 0.0
2018-Feb-16 16:00N 40°38' W 074°04'0 0.0
2018-Feb-16 15:30N 40°38' W 074°04'0 0.0
2018-Feb-16 15:00N 40°38' W 074°04'0 0.0
2018-Feb-16 14:30N 40°38' W 074°04'0 0.0
2018-Feb-16 14:00N 40°38' W 074°04'0 0.0
2018-Feb-16 13:30N 40°38' W 074°04'0 0.5
2018-Feb-16 13:00N 40°39' W 074°04'0 0.2
2018-Feb-16 12:30N 40°39' W 074°04'2 5.0
2018-Feb-16 12:01N 40°41' W 074°02'1 1.5
2018-Feb-16 11:30N 40°40' W 074°03'2 3.6
2018-Feb-16 11:00N 40°39' W 074°04'4 8.7
2018-Feb-16 10:30N 40°42' W 074°01'4 8.6
2018-Feb-16 10:00N 40°39' W 074°04'4 8.6
2018-Feb-16 09:30N 40°42' W 074°01'4 8.6
2018-Feb-16 09:00N 40°39' W 074°04'4 8.6
2018-Feb-16 08:30N 40°42' W 074°01'4 8.7
2018-Feb-16 08:00N 40°39' W 074°04'4 8.6
2018-Feb-16 07:30N 40°42' W 074°01'4 8.5
2018-Feb-16 07:00N 40°39' W 074°04'0 0.0
2018-Feb-16 06:29N 40°39' W 074°04'0 0.1
2018-Feb-16 06:00N 40°39' W 074°04'0 0.1
2018-Feb-16 05:30N 40°39' W 074°04'4 8.5
2018-Feb-16 05:00N 40°42' W 074°01'4 8.6
2018-Feb-16 04:31N 40°39' W 074°04'0 0.4
2018-Feb-16 03:59N 40°38' W 074°04'0 0.0
2018-Feb-16 03:31N 40°38' W 074°04'0 0.0
2018-Feb-16 03:00N 40°38' W 074°04'0 0.0
2018-Feb-16 02:30N 40°38' W 074°04'0 0.0
2018-Feb-16 02:00N 40°38' W 074°04'0 0.0
2018-Feb-16 01:30N 40°38' W 074°04'0 0.0
2018-Feb-16 01:00N 40°38' W 074°04'0 0.0
2018-Feb-16 00:24N 40°38' W 074°04'0 0.0
2018-Feb-16 00:00N 40°38' W 074°04'0 0.0
2018-Feb-15 23:30N 40°38' W 074°04'0 0.0
2018-Feb-15 23:00N 40°38' W 074°04'0 0.0
2018-Feb-15 22:30N 40°38' W 074°04'0 0.0
2018-Feb-15 22:00N 40°38' W 074°04'0 0.0
2018-Feb-15 21:30N 40°38' W 074°04'0 0.0
2018-Feb-15 21:00N 40°38' W 074°04'0 0.0
2018-Feb-15 20:30N 40°38' W 074°04'0 0.0
2018-Feb-15 19:54N 40°38' W 074°04'0 0.0
2018-Feb-15 19:30N 40°38' W 074°04'0 0.0
2018-Feb-15 19:00N 40°38' W 074°04'0 0.0
2018-Feb-15 18:30N 40°38' W 074°04'0 0.0
2018-Feb-15 17:57N 40°38' W 074°04'0 0.0
2018-Feb-15 17:30N 40°38' W 074°04'0 0.0
2018-Feb-15 16:57N 40°38' W 074°04'0 0.0
2018-Feb-15 16:30N 40°38' W 074°04'0 0.0
2018-Feb-15 15:57N 40°38' W 074°04'0 0.0
2018-Feb-15 15:21N 40°38' W 074°04'0 0.0
2018-Feb-15 15:00N 40°38' W 074°04'0 0.0
2018-Feb-15 14:30N 40°38' W 074°04'0 0.0
2018-Feb-15 14:00N 40°38' W 074°04'0 0.0
2018-Feb-15 13:31N 40°38' W 074°04'0 0.0
2018-Feb-15 13:00N 40°38' W 074°04'0 0.0
2018-Feb-15 12:30N 40°38' W 074°04'0 0.3
2018-Feb-15 12:00N 40°39' W 074°04'0 0.0
2018-Feb-15 11:30N 40°39' W 074°04'4 8.7
2018-Feb-15 11:00N 40°42' W 074°01'4 8.6
2018-Feb-15 10:30N 40°39' W 074°04'4 8.6
2018-Feb-15 10:00N 40°42' W 074°01'4 8.7
2018-Feb-15 09:30N 40°39' W 074°04'4 8.6
2018-Feb-15 09:00N 40°42' W 074°01'4 8.6
2018-Feb-15 08:30N 40°39' W 074°04'4 8.6
2018-Feb-15 08:00N 40°42' W 074°01'4 8.6
2018-Feb-15 07:30N 40°39' W 074°04'4 8.6
2018-Feb-15 07:00N 40°42' W 074°01'4 8.5
2018-Feb-15 06:30N 40°39' W 074°04'4 8.5
2018-Feb-15 06:00N 40°42' W 074°01'4 8.6
2018-Feb-15 05:31N 40°39' W 074°04'4 8.5
2018-Feb-15 05:00N 40°42' W 074°01'4 8.4
2018-Feb-15 04:30N 40°39' W 074°04'0 0.4
2018-Feb-15 04:00N 40°38' W 074°04'0 0.1
2018-Feb-15 03:30N 40°38' W 074°04'0 0.1
2018-Feb-15 03:00N 40°38' W 074°04'0 0.0
2018-Feb-15 02:30N 40°38' W 074°04'0 0.0
2018-Feb-15 02:00N 40°38' W 074°04'0 0.0
2018-Feb-15 01:30N 40°38' W 074°04'0 0.0
2018-Feb-15 01:00N 40°38' W 074°04'0 0.0
2018-Feb-15 00:30N 40°38' W 074°04'0 0.0
2018-Feb-15 00:00N 40°38' W 074°04'0 0.0
2018-Feb-14 23:30N 40°38' W 074°04'0 0.0
2018-Feb-14 23:00N 40°38' W 074°04'0 0.0
2018-Feb-14 22:30N 40°38' W 074°04'0 0.0
2018-Feb-14 22:00N 40°38' W 074°04'0 0.0
2018-Feb-14 21:30N 40°38' W 074°04'0 0.0
2018-Feb-14 21:00N 40°38' W 074°04'0 0.0
2018-Feb-14 20:30N 40°38' W 074°04'0 0.0
2018-Feb-14 20:00N 40°38' W 074°04'0 0.0
2018-Feb-14 19:30N 40°38' W 074°04'0 0.0
2018-Feb-14 19:00N 40°38' W 074°04'0 0.0
2018-Feb-14 18:30N 40°38' W 074°04'0 0.0
2018-Feb-14 18:00N 40°38' W 074°04'0 0.0
2018-Feb-14 17:30N 40°38' W 074°04'0 0.0
2018-Feb-14 17:00N 40°38' W 074°04'0 0.0
2018-Feb-14 16:30N 40°38' W 074°04'0 0.0
2018-Feb-14 16:00N 40°38' W 074°04'0 0.0
2018-Feb-14 15:29N 40°38' W 074°04'0 0.0
2018-Feb-14 15:00N 40°38' W 074°04'0 0.0
2018-Feb-14 14:30N 40°38' W 074°04'0 0.0
2018-Feb-14 14:00N 40°38' W 074°04'0 0.0
2018-Feb-14 13:30N 40°38' W 074°04'0 0.0
2018-Feb-14 13:00N 40°38' W 074°04'0 0.0
2018-Feb-14 12:30N 40°38' W 074°04'0 0.6
2018-Feb-14 12:00N 40°39' W 074°04'0 0.3
2018-Feb-14 11:30N 40°39' W 074°04'4 8.7
2018-Feb-14 11:00N 40°42' W 074°01'4 8.6
2018-Feb-14 10:31N 40°39' W 074°04'4 8.6
2018-Feb-14 10:01N 40°42' W 074°01'4 8.6
2018-Feb-14 09:30N 40°39' W 074°04'4 8.6
2018-Feb-14 09:01N 40°42' W 074°01'4 8.6
2018-Feb-14 08:30N 40°39' W 074°04'4 8.6
2018-Feb-14 08:00N 40°42' W 074°01'4 8.5
2018-Feb-14 07:30N 40°39' W 074°04'4 8.7
2018-Feb-14 07:01N 40°42' W 074°01'4 8.6
2018-Feb-14 06:30N 40°39' W 074°04'4 8.6
2018-Feb-14 06:00N 40°42' W 074°01'4 8.7
2018-Feb-14 05:31N 40°39' W 074°04'4 8.6
2018-Feb-14 05:01N 40°42' W 074°01'4 8.6
2018-Feb-14 04:30N 40°39' W 074°04'0 0.4
2018-Feb-14 04:00N 40°38' W 074°04'0 0.0
2018-Feb-14 03:31N 40°38' W 074°04'0 0.0
2018-Feb-14 03:00N 40°38' W 074°04'0 0.0
2018-Feb-14 02:31N 40°38' W 074°04'0 0.0
2018-Feb-14 02:00N 40°38' W 074°04'0 0.0
2018-Feb-14 01:31N 40°38' W 074°04'0 0.0
2018-Feb-14 01:01N 40°38' W 074°04'0 0.0
2018-Feb-14 00:31N 40°38' W 074°04'0 0.0
2018-Feb-14 00:01N 40°38' W 074°04'0 0.0
2018-Feb-13 23:31N 40°38' W 074°04'0 0.0
2018-Feb-13 23:00N 40°38' W 074°04'0 0.0
2018-Feb-13 22:31N 40°38' W 074°04'0 0.0
2018-Feb-13 22:00N 40°38' W 074°04'0 0.0
2018-Feb-13 21:31N 40°38' W 074°04'0 0.0
2018-Feb-13 21:01N 40°38' W 074°04'0 0.0
2018-Feb-13 20:30N 40°38' W 074°04'0 0.0
2018-Feb-13 20:00N 40°38' W 074°04'0 0.0
2018-Feb-13 19:31N 40°38' W 074°04'0 0.0
2018-Feb-13 19:01N 40°38' W 074°04'0 0.0
2018-Feb-13 18:30N 40°38' W 074°04'0 0.0
2018-Feb-13 18:00N 40°38' W 074°04'0 0.0
2018-Feb-13 17:30N 40°38' W 074°04'0 0.0
2018-Feb-13 17:00N 40°38' W 074°04'0 0.0
2018-Feb-13 16:31N 40°38' W 074°04'0 0.0
2018-Feb-13 16:01N 40°38' W 074°04'0 0.0
2018-Feb-13 15:30N 40°38' W 074°04'0 0.0
2018-Feb-13 15:00N 40°38' W 074°04'0 0.0
2018-Feb-13 14:31N 40°38' W 074°04'0 0.0
2018-Feb-13 14:00N 40°38' W 074°04'0 0.0
2018-Feb-13 13:30N 40°38' W 074°04'0 0.0
2018-Feb-13 13:00N 40°38' W 074°04'0 0.0
2018-Feb-13 12:30N 40°38' W 074°04'0 0.5
2018-Feb-13 12:01N 40°39' W 074°04'0 0.0
2018-Feb-13 11:31N 40°39' W 074°04'4 8.4
2018-Feb-13 11:00N 40°42' W 074°01'4 8.7
2018-Feb-13 10:30N 40°39' W 074°04'4 8.6
2018-Feb-13 10:00N 40°42' W 074°01'4 8.6
2018-Feb-13 09:30N 40°39' W 074°04'4 8.5
2018-Feb-13 09:00N 40°42' W 074°01'4 8.6
2018-Feb-13 08:30N 40°39' W 074°04'4 8.6
2018-Feb-13 08:00N 40°42' W 074°01'4 8.6
2018-Feb-13 07:31N 40°39' W 074°04'4 8.6
2018-Feb-13 07:01N 40°42' W 074°01'4 8.6
2018-Feb-13 06:30N 40°39' W 074°04'4 8.6
2018-Feb-13 06:00N 40°42' W 074°01'4 8.6
2018-Feb-13 05:31N 40°39' W 074°04'4 8.5
2018-Feb-13 05:01N 40°42' W 074°01'4 8.5
2018-Feb-13 04:30N 40°39' W 074°04'0 0.4
2018-Feb-13 04:01N 40°38' W 074°04'0 0.0
2018-Feb-13 03:31N 40°38' W 074°04'0 0.0
2018-Feb-13 03:00N 40°38' W 074°04'0 0.0
2018-Feb-13 02:29N 40°38' W 074°04'0 0.0
2018-Feb-13 01:56N 40°38' W 074°04'0 0.0
2018-Feb-13 01:29N 40°38' W 074°04'0 0.0
2018-Feb-13 00:59N 40°38' W 074°04'  

Dump ship's entire track history